Time;durP1;ratioP1;P1;durP2;ratioP2;P2;SDS_P1;SDS_P2;PMS_P1;PMS_P2;Temp;Humidity;BMP_temperature;BMP_pressure;BME280_temperature;BME280_humidity;BME280_pressure;Samples;Min_cycle;Max_cycle;Signal;HPM_P1;HPM_P2
2022/12/05 00:00:08;;;;;;;22.43;20.33;;;;;;;7.15;100.00;100772.53;309167;31;4367;-78
2022/12/05 00:00:18;;;;;;;22.38;20.27;;;;;;;7.15;100.00;100775.16;306713;32;1316;-78
2022/12/05 00:00:29;;;;;;;22.13;20.05;;;;;;;7.16;100.00;100777.75;308113;32;4570;-80
2022/12/05 00:00:39;;;;;;;22.00;20.00;;;;;;;7.17;100.00;100776.00;306959;32;3391;-79
2022/12/05 00:00:50;;;;;;;22.10;20.10;;;;;;;7.18;100.00;100775.13;305765;32;2793;-78
2022/12/05 00:01:25;;;;;;;22.23;20.20;;;;;;;7.19;100.00;100782.91;305634;32;849;-79
2022/12/05 00:01:41;;;;;;;21.95;19.95;;;;;;;7.20;100.00;100773.38;301160;32;4223;-78
2022/12/05 00:01:52;;;;;;;21.80;19.80;;;;;;;7.20;100.00;100774.25;300675;32;7197;-78
2022/12/05 00:02:02;;;;;;;21.83;19.83;;;;;;;7.20;100.00;100782.03;300319;32;1352;-78
2022/12/05 00:02:13;;;;;;;21.88;19.88;;;;;;;7.21;100.00;100780.31;303971;32;7311;-78
2022/12/05 00:02:23;;;;;;;21.90;19.90;;;;;;;7.21;100.00;100775.09;303993;32;6666;-78
2022/12/05 00:02:34;;;;;;;21.90;19.90;;;;;;;7.19;100.00;100774.25;303701;32;1268;-79
2022/12/05 00:02:44;;;;;;;22.00;20.00;;;;;;;7.21;100.00;100775.97;299389;32;6512;-79
2022/12/05 00:02:54;;;;;;;22.40;20.33;;;;;;;7.21;100.00;100781.16;299835;32;4806;-79
2022/12/05 00:03:05;;;;;;;22.60;20.50;;;;;;;7.21;100.00;100780.31;298865;32;4582;-78
2022/12/05 00:03:15;;;;;;;23.08;20.98;;;;;;;7.23;100.00;100786.38;296148;33;1362;-78
2022/12/05 00:03:26;;;;;;;24.10;21.90;;;;;;;7.22;100.00;100776.81;292328;33;5809;-79
2022/12/05 00:03:36;;;;;;;23.92;21.73;;;;;;;7.23;100.00;100778.56;289898;33;6627;-79
2022/12/05 00:03:47;;;;;;;24.00;21.80;;;;;;;7.23;100.00;100770.75;290319;34;1254;-79
2022/12/05 00:03:59;;;;;;;23.00;20.90;;;;;;;7.18;100.00;100780.31;289493;33;6325;-79
2022/12/05 00:06:13;;;;;;;21.75;19.74;;;;;;;7.19;100.00;100782.91;2501637;27;20269;-80
2022/12/05 00:06:25;;;;;;;22.20;20.10;;;;;;;7.17;100.00;100776.00;353334;28;1085;-80
2022/12/05 00:06:35;;;;;;;22.35;20.25;;;;;;;7.19;100.00;100780.31;351088;28;1388;-80
2022/12/05 00:06:46;;;;;;;22.42;20.33;;;;;;;7.19;100.00;100784.66;351909;28;1222;-79
2022/12/05 00:06:56;;;;;;;22.53;20.43;;;;;;;7.20;100.00;100781.19;347781;28;1290;-79
2022/12/05 00:07:06;;;;;;;22.75;20.65;;;;;;;7.17;100.00;100779.47;349274;28;1229;-80
2022/12/05 00:07:17;;;;;;;23.20;21.00;;;;;;;7.17;100.00;100783.81;349157;28;1312;-80
2022/12/05 00:07:27;;;;;;;23.43;21.23;;;;;;;7.17;100.00;100781.22;350500;28;1203;-80
2022/12/05 00:07:38;;;;;;;23.57;21.37;;;;;;;7.14;100.00;100782.09;350590;28;1012;-80
2022/12/05 00:07:48;;;;;;;23.83;21.63;;;;;;;7.12;100.00;100780.38;346487;28;1018;-80
2022/12/05 00:07:58;;;;;;;23.87;21.67;;;;;;;7.13;100.00;100776.91;347967;28;1380;-80
2022/12/05 00:08:09;;;;;;;24.10;21.80;;;;;;;7.12;100.00;100775.16;348269;28;4020;-80
2022/12/05 00:08:19;;;;;;;23.60;21.40;;;;;;;7.11;100.00;100778.66;349005;28;2854;-80
2022/12/05 00:08:30;;;;;;;23.47;21.27;;;;;;;7.11;100.00;100779.50;350504;28;1932;-79
2022/12/05 00:08:40;;;;;;;22.95;20.85;;;;;;;7.12;100.00;100775.16;347434;28;2743;-79
2022/12/05 00:08:51;;;;;;;22.83;20.73;;;;;;;7.13;100.00;100777.75;349225;28;1336;-80
2022/12/05 00:09:02;;;;;;;22.40;20.30;;;;;;;7.13;100.00;100782.97;347717;28;1204;-80
2022/12/05 00:09:12;;;;;;;22.35;20.25;;;;;;;7.13;100.00;100777.75;349130;28;1224;-77
2022/12/05 00:09:23;;;;;;;22.27;20.17;;;;;;;7.15;100.00;100777.75;347759;28;1339;-79
2022/12/05 00:09:33;;;;;;;22.40;20.30;;;;;;;7.15;100.00;100769.94;347596;28;1317;-78
2022/12/05 00:09:43;;;;;;;22.33;20.23;;;;;;;7.15;100.00;100775.16;349083;28;1266;-78
2022/12/05 00:09:54;;;;;;;22.50;20.40;;;;;;;7.12;100.00;100776.03;348972;28;1084;-78
2022/12/05 00:10:05;;;;;;;22.40;20.30;;;;;;;7.12;100.00;100777.78;346300;28;1186;-78
2022/12/05 00:10:16;;;;;;;22.55;20.45;;;;;;;7.08;100.00;100774.31;344988;28;884;-79
2022/12/05 00:10:26;;;;;;;22.30;20.20;;;;;;;7.06;100.00;100780.41;340981;29;1316;-79
2022/12/05 00:10:37;;;;;;;22.23;20.13;;;;;;;7.03;100.00;100780.44;344013;28;1204;-79
2022/12/05 00:10:48;;;;;;;22.20;20.10;;;;;;;7.00;100.00;100771.78;343587;28;940;-79
2022/12/05 00:10:58;;;;;;;22.27;20.17;;;;;;;7.03;100.00;100770.03;342271;28;1332;-79
2022/12/05 00:11:13;;;;;;;22.33;20.23;;;;;;;7.04;100.00;100776.97;342244;28;1355;-79
2022/12/05 00:11:26;;;;;;;22.27;20.17;;;;;;;7.04;100.00;100780.44;344978;28;1356;-79
2022/12/05 00:11:38;;;;;;;22.20;20.10;;;;;;;7.03;100.00;100780.44;342736;28;1266;-79
2022/12/05 00:11:48;;;;;;;22.35;20.25;;;;;;;6.98;100.00;100776.13;342904;28;904;-79
2022/12/05 00:11:58;;;;;;;22.35;20.25;;;;;;;7.00;100.00;100771.78;345011;28;1343;-79
2022/12/05 00:12:09;;;;;;;22.50;20.40;;;;;;;7.00;100.00;100771.78;342131;28;1236;-79
2022/12/05 00:12:19;;;;;;;22.38;20.27;;;;;;;7.03;100.00;100777.84;343890;28;1317;-79
2022/12/05 00:12:30;;;;;;;22.40;20.30;;;;;;;7.04;100.00;100780.44;343572;28;1349;-79
2022/12/05 00:12:40;;;;;;;22.30;20.20;;;;;;;7.03;100.00;100776.09;347567;28;1192;-79
2022/12/05 00:12:50;;;;;;;22.40;20.30;;;;;;;7.02;100.00;100774.38;343056;28;1228;-79
2022/12/05 00:13:01;;;;;;;22.38;20.27;;;;;;;7.00;100.00;100773.53;342455;28;964;-79
2022/12/05 00:13:11;;;;;;;22.33;20.23;;;;;;;7.01;100.00;100772.66;344771;28;1236;-79
2022/12/05 00:13:22;;;;;;;22.27;20.17;;;;;;;7.04;100.00;100776.97;343563;28;1203;-79
2022/12/05 00:13:32;;;;;;;22.37;20.27;;;;;;;7.04;100.00;100771.75;339659;29;1218;-79
2022/12/05 00:13:44;;;;;;;22.77;20.67;;;;;;;7.04;100.00;100782.16;345231;28;829;-79
2022/12/05 00:13:55;;;;;;;23.55;21.35;;;;;;;7.06;100.00;100778.69;343529;28;1271;-79
2022/12/05 00:14:07;;;;;;;23.67;21.48;;;;;;;7.07;100.00;100774.34;340161;29;1443;-79
2022/12/05 00:14:17;;;;;;;23.85;21.63;;;;;;;7.08;100.00;100773.47;338350;29;1278;-79
2022/12/05 00:14:28;;;;;;;24.23;21.97;;;;;;;7.08;100.00;100773.47;338460;29;886;-79
2022/12/05 00:14:38;;;;;;;24.23;21.95;;;;;;;7.09;100.00;100773.44;338673;29;1280;-79
2022/12/05 00:14:49;;;;;;;24.47;22.17;;;;;;;7.10;100.00;100771.72;340791;28;1650;-79
2022/12/05 00:15:00;;;;;;;24.20;21.93;;;;;;;7.09;100.00;100778.66;339658;29;1226;-79
2022/12/05 00:15:11;;;;;;;24.45;22.17;;;;;;;7.12;100.00;100772.56;341887;28;1981;-79
2022/12/05 00:15:21;;;;;;;24.25;21.98;;;;;;;7.10;100.00;100771.72;340994;29;888;-79
2022/12/05 00:15:36;;;;;;;24.00;21.73;;;;;;;7.13;100.00;100779.50;339574;29;1302;-79
2022/12/05 00:15:46;;;;;;;23.27;21.08;;;;;;;7.15;100.00;100777.75;334580;29;1317;-79
2022/12/05 00:15:57;;;;;;;22.90;20.70;;;;;;;7.14;100.00;100776.03;335937;29;1265;-79
2022/12/05 00:16:11;;;;;;;23.37;21.17;;;;;;;7.15;100.00;100775.16;336684;29;1534;-80
2022/12/05 00:16:23;;;;;;;22.67;20.58;;;;;;;7.16;100.00;100772.53;331554;29;1922;-80
2022/12/05 00:16:35;;;;;;;22.27;20.17;;;;;;;7.18;100.00;100775.13;328668;29;2016;-79
2022/12/05 00:16:45;;;;;;;22.38;20.27;;;;;;;7.18;100.00;100775.13;329915;29;1296;-80
2022/12/05 00:16:56;;;;;;;22.90;20.80;;;;;;;7.18;100.00;100776.00;334221;29;2088;-80
2022/12/05 00:17:06;;;;;;;23.58;21.38;;;;;;;7.19;100.00;100774.25;336223;29;1674;-80
2022/12/05 00:17:17;;;;;;;24.30;22.00;;;;;;;7.19;100.00;100774.25;330838;29;2905;-79
2022/12/05 00:17:27;;;;;;;24.08;21.80;;;;;;;7.16;100.00;100772.53;331266;29;3260;-79
2022/12/05 00:17:39;;;;;;;24.03;21.83;;;;;;;7.18;100.00;100778.59;330999;29;1328;-79
2022/12/05 00:17:50;;;;;;;23.45;21.25;;;;;;;7.19;100.00;100779.44;332137;29;1893;-79
2022/12/05 00:18:01;;;;;;;23.10;20.92;;;;;;;7.18;100.00;100775.13;333248;29;1308;-80
2022/12/05 00:18:12;;;;;;;22.38;20.27;;;;;;;7.17;100.00;100779.47;327039;30;1361;-80
2022/12/05 00:18:22;;;;;;;22.47;20.37;;;;;;;7.14;100.00;100784.69;330097;29;2242;-80
2022/12/05 00:18:32;;;;;;;22.50;20.40;;;;;;;7.11;100.00;100768.25;330472;29;2197;-80
2022/12/05 00:18:43;;;;;;;22.67;20.57;;;;;;;7.10;100.00;100774.31;326067;30;1198;-80
2022/12/05 00:18:53;;;;;;;22.70;20.60;;;;;;;7.10;100.00;100775.19;326051;30;2348;-80
2022/12/05 00:19:05;;;;;;;22.63;20.52;;;;;;;7.10;100.00;100776.91;323908;30;2532;-80
2022/12/05 00:19:16;;;;;;;22.48;20.38;;;;;;;7.10;100.00;100776.91;323927;30;1412;-80
2022/12/05 00:19:26;;;;;;;22.25;20.15;;;;;;;7.08;100.00;100782.13;324693;30;1406;-80
2022/12/05 00:19:38;;;;;;;22.20;20.10;;;;;;;7.08;100.00;100779.53;322688;30;1715;-80
2022/12/05 00:19:48;;;;;;;22.30;20.20;;;;;;;7.09;100.00;100777.78;322602;30;1281;-80
2022/12/05 00:19:58;;;;;;;22.40;20.30;;;;;;;7.06;100.00;100773.47;321045;30;1401;-80
2022/12/05 00:20:09;;;;;;;22.55;20.45;;;;;;;7.05;100.00;100771.75;318627;30;2170;-80
2022/12/05 00:20:20;;;;;;;22.73;20.63;;;;;;;7.01;100.00;100775.25;319395;30;2541;-80
2022/12/05 00:20:30;;;;;;;22.65;20.55;;;;;;;6.99;100.00;100770.06;316434;31;1385;-79
2022/12/05 00:20:47;;;;;;;22.77;20.67;;;;;;;7.00;100.00;100774.38;315796;31;3259;-79
2022/12/05 00:20:58;;;;;;;22.60;20.50;;;;;;;7.03;100.00;100777.84;318786;31;1372;-79
2022/12/05 00:21:14;;;;;;;22.50;20.40;;;;;;;7.02;100.00;100774.38;313513;31;3193;-79
2022/12/05 00:21:26;;;;;;;22.42;20.33;;;;;;;7.04;100.00;100771.75;313238;31;2743;-79
2022/12/05 00:21:37;;;;;;;22.50;20.40;;;;;;;7.06;100.00;100778.69;313407;31;2087;-79
2022/12/05 00:21:47;;;;;;;22.60;20.50;;;;;;;7.06;100.00;100770.88;312757;31;2209;-79
2022/12/05 00:21:57;;;;;;;22.57;20.47;;;;;;;7.08;100.00;100773.47;314645;31;1225;-79
2022/12/05 00:22:08;;;;;;;22.38;20.38;;;;;;;7.10;100.00;100771.72;312423;31;1835;-79
2022/12/05 00:22:18;;;;;;;22.53;20.43;;;;;;;7.11;100.00;100773.44;312105;31;2773;-79
2022/12/05 00:22:29;;;;;;;22.67;20.57;;;;;;;7.11;100.00;100779.50;309802;31;1205;-79
2022/12/05 00:22:39;;;;;;;22.63;20.52;;;;;;;7.12;100.00;100773.44;308771;31;3369;-79
2022/12/05 00:22:49;;;;;;;22.60;20.50;;;;;;;7.14;100.00;100773.41;308680;31;4574;-79
2022/12/05 00:23:00;;;;;;;22.80;20.70;;;;;;;7.14;100.00;100769.06;306563;32;1417;-79
2022/12/05 00:23:10;;;;;;;23.20;21.10;;;;;;;7.15;100.00;100775.16;305579;32;4094;-79
2022/12/05 00:23:21;;;;;;;23.05;20.95;;;;;;;7.16;100.00;100774.28;300791;32;4260;-79
2022/12/05 00:23:31;;;;;;;22.97;20.87;;;;;;;7.17;100.00;100778.59;298808;33;1209;-79
2022/12/05 00:23:42;;;;;;;22.35;20.35;;;;;;;7.17;100.00;100779.47;298268;33;1345;-79
2022/12/05 00:23:53;;;;;;;22.20;20.20;;;;;;;7.18;100.00;100775.13;298202;32;2861;-79
2022/12/05 00:24:04;;;;;;;22.20;20.20;;;;;;;7.18;100.00;100769.91;297154;32;3179;-79
2022/12/05 00:24:15;;;;;;;22.63;20.52;;;;;;;7.20;100.00;100778.56;299713;32;1671;-79
2022/12/05 00:24:25;;;;;;;22.77;20.67;;;;;;;7.20;100.00;100773.38;292740;33;2998;-79
2022/12/05 00:24:35;;;;;;;22.77;20.67;;;;;;;7.20;100.00;100775.97;291341;33;4073;-79
2022/12/05 00:24:46;;;;;;;22.45;20.45;;;;;;;7.21;100.00;100772.50;292269;33;1343;-79
2022/12/05 00:24:58;;;;;;;23.00;20.90;;;;;;;7.20;100.00;100768.16;293192;33;5389;-80
2022/12/05 00:25:08;;;;;;;23.30;21.20;;;;;;;7.21;100.00;100775.97;290777;33;6790;-79
2022/12/05 00:25:19;;;;;;;23.17;21.08;;;;;;;7.22;100.00;100766.41;287498;33;5868;-79
2022/12/05 00:25:29;;;;;;;23.07;20.97;;;;;;;7.22;100.00;100769.00;285621;34;1216;-79
2022/12/05 00:25:40;;;;;;;22.38;20.38;;;;;;;7.23;100.00;100765.53;291351;33;5797;-79
2022/12/05 00:25:50;;;;;;;22.27;20.27;;;;;;;7.23;100.00;100773.34;290853;33;4938;-79
2022/12/05 00:26:04;;;;;;;22.20;20.20;;;;;;;7.22;100.00;100771.63;289422;34;1241;-80
2022/12/05 00:26:14;;;;;;;22.02;20.02;;;;;;;7.21;100.00;100768.16;285822;34;948;-79
2022/12/05 00:26:25;;;;;;;22.20;20.20;;;;;;;7.21;100.00;100756.88;281726;34;4734;-79
2022/12/05 00:26:35;;;;;;;22.42;20.40;;;;;;;7.20;100.00;100769.03;279601;34;4895;-79
2022/12/05 00:26:45;;;;;;;22.80;20.70;;;;;;;7.20;100.00;100769.03;281803;35;2226;-79
2022/12/05 00:26:56;;;;;;;23.67;21.58;;;;;;;7.20;100.00;100762.97;276413;35;6575;-79
2022/12/05 00:27:06;;;;;;;24.70;22.50;;;;;;;7.22;100.00;100771.63;276273;35;7581;-79
2022/12/05 00:27:17;;;;;;;24.58;22.38;;;;;;;7.21;100.00;100769.88;276935;35;9532;-79
2022/12/05 00:29:41;;;;;;;21.76;19.79;;;;;;;7.24;100.00;100769.88;2494672;27;20262;-78
2022/12/05 00:29:51;;;;;;;21.80;19.70;;;;;;;7.22;100.00;100756.88;351718;28;1275;-78
2022/12/05 00:30:02;;;;;;;21.80;19.80;;;;;;;7.24;100.00;100772.47;349298;28;879;-78
2022/12/05 00:30:12;;;;;;;21.90;19.90;;;;;;;7.24;100.00;100760.31;349048;28;1329;-78
2022/12/05 00:30:23;;;;;;;22.17;20.17;;;;;;;7.24;100.00;100768.13;349026;28;1215;-78
2022/12/05 00:30:33;;;;;;;22.13;20.13;;;;;;;7.25;100.00;100771.59;350603;28;876;-78
2022/12/05 00:30:45;;;;;;;22.40;20.40;;;;;;;7.22;100.00;100761.22;350516;28;1222;-79
2022/12/05 00:30:59;;;;;;;22.98;20.88;;;;;;;7.22;100.00;100762.06;349191;28;789;-79
2022/12/05 00:31:11;;;;;;;23.22;21.12;;;;;;;7.23;100.00;100762.94;347731;28;1637;-79
2022/12/05 00:31:22;;;;;;;22.73;20.63;;;;;;;7.23;100.00;100762.94;347649;28;1276;-78
2022/12/05 00:31:33;;;;;;;22.65;20.55;;;;;;;7.23;100.00;100757.72;347968;28;1290;-78
2022/12/05 00:31:43;;;;;;;23.07;20.97;;;;;;;7.23;100.00;100762.94;349215;28;792;-78
2022/12/05 00:31:54;;;;;;;23.52;21.35;;;;;;;7.24;100.00;100762.06;349074;28;949;-78
2022/12/05 00:32:04;;;;;;;24.00;21.80;;;;;;;7.24;100.00;100764.66;347655;28;1116;-78
2022/12/05 00:32:14;;;;;;;23.85;21.65;;;;;;;7.24;100.00;100760.31;347892;28;896;-78
2022/12/05 00:32:26;;;;;;;24.10;21.90;;;;;;;7.24;100.00;100764.66;349102;28;1309;-78
2022/12/05 00:32:37;;;;;;;23.33;21.17;;;;;;;7.26;100.00;100758.56;344988;28;1279;-79
2022/12/05 00:32:47;;;;;;;22.60;20.55;;;;;;;7.26;100.00;100768.13;346543;28;1203;-79
2022/12/05 00:32:58;;;;;;;22.40;20.37;;;;;;;7.24;100.00;100760.31;350457;28;1243;-79
2022/12/05 00:33:08;;;;;;;22.10;20.10;;;;;;;7.24;100.00;100769.88;350121;28;1253;-79
2022/12/05 00:33:18;;;;;;;22.10;20.10;;;;;;;7.23;100.00;100773.34;346246;28;1223;-80
2022/12/05 00:33:29;;;;;;;21.90;19.90;;;;;;;7.24;100.00;100764.66;345300;28;1323;-79
2022/12/05 00:33:39;;;;;;;22.10;20.10;;;;;;;7.24;100.00;100765.53;346209;28;1279;-80
2022/12/05 00:33:50;;;;;;;22.43;20.33;;;;;;;7.23;100.00;100763.78;345668;28;901;-79
2022/12/05 00:34:01;;;;;;;22.40;20.30;;;;;;;7.24;100.00;100770.72;346461;28;1073;-79
2022/12/05 00:34:11;;;;;;;22.35;20.25;;;;;;;7.24;100.00;100769.88;344940;28;1384;-79
2022/12/05 00:34:22;;;;;;;22.30;20.20;;;;;;;7.25;100.00;100766.38;346310;28;1355;-79
2022/12/05 00:34:32;;;;;;;22.30;20.20;;;;;;;7.25;100.00;100769.00;346481;28;939;-79
2022/12/05 00:34:42;;;;;;;22.30;20.20;;;;;;;7.24;100.00;100764.66;346347;28;1357;-79
2022/12/05 00:34:53;;;;;;;22.90;20.70;;;;;;;7.20;100.00;100768.16;345046;28;1258;-79
2022/12/05 00:35:04;;;;;;;23.10;20.90;;;;;;;7.14;100.00;100770.81;344122;28;1244;-79
2022/12/05 00:35:14;;;;;;;23.20;21.00;;;;;;;7.14;100.00;100774.28;345020;28;1249;-79
2022/12/05 00:35:24;;;;;;;22.67;20.48;;;;;;;7.15;100.00;100775.16;346484;28;1247;-79
2022/12/05 00:35:35;;;;;;;22.60;20.40;;;;;;;7.14;100.00;100763.88;344308;28;1750;-79
2022/12/05 00:35:45;;;;;;;22.40;20.30;;;;;;;7.16;100.00;100771.66;340745;28;2859;-79
2022/12/05 00:36:03;;;;;;;22.40;20.30;;;;;;;7.17;100.00;100771.66;339632;29;1217;-79
2022/12/05 00:36:19;;;;;;;22.73;20.63;;;;;;;7.17;100.00;100779.47;339229;29;1822;-79
2022/12/05 00:36:31;;;;;;;22.48;20.38;;;;;;;7.17;100.00;100769.06;337066;29;1348;-79
2022/12/05 00:36:41;;;;;;;22.27;20.17;;;;;;;7.18;100.00;100777.72;339840;29;955;-79
2022/12/05 00:36:51;;;;;;;22.38;20.27;;;;;;;7.17;100.00;100770.78;339628;29;1150;-79
2022/12/05 00:37:02;;;;;;;23.07;20.87;;;;;;;7.17;100.00;100773.41;338299;29;1305;-79
2022/12/05 00:37:12;;;;;;;23.25;21.05;;;;;;;7.17;100.00;100778.59;338354;29;1242;-79
2022/12/05 00:37:23;;;;;;;23.60;21.40;;;;;;;7.17;100.00;100778.59;341924;28;1374;-79
2022/12/05 00:37:33;;;;;;;23.23;21.05;;;;;;;7.16;100.00;100769.06;340865;28;1380;-79
2022/12/05 00:37:43;;;;;;;23.73;21.53;;;;;;;7.17;100.00;100768.19;338700;29;1186;-79
2022/12/05 00:37:54;;;;;;;24.00;21.73;;;;;;;7.18;100.00;100775.13;339315;29;1504;-79
2022/12/05 00:38:04;;;;;;;24.10;21.80;;;;;;;7.20;100.00;100774.25;337617;29;1376;-79
2022/12/05 00:38:15;;;;;;;23.40;21.20;;;;;;;7.20;100.00;100773.38;332099;29;1205;-78
2022/12/05 00:38:25;;;;;;;22.60;20.50;;;;;;;7.20;100.00;100773.38;332003;29;1291;-79
2022/12/05 00:38:36;;;;;;;22.40;20.30;;;;;;;7.22;100.00;100771.63;333911;29;1891;-79
2022/12/05 00:38:46;;;;;;;22.35;20.25;;;;;;;7.22;100.00;100766.41;332220;29;1418;-79
2022/12/05 00:39:09;;;;;;;22.15;20.05;;;;;;;7.23;100.00;100770.75;335779;29;1325;-79
2022/12/05 00:39:19;;;;;;;22.00;19.90;;;;;;;7.22;100.00;100771.63;333747;29;1517;-79
2022/12/05 00:39:30;;;;;;;22.20;20.10;;;;;;;7.21;100.00;100770.75;330752;29;1270;-79
2022/12/05 00:39:40;;;;;;;22.60;20.40;;;;;;;7.21;100.00;100770.75;328219;30;1219;-79
2022/12/05 00:39:50;;;;;;;22.80;20.60;;;;;;;7.22;100.00;100774.22;330524;29;1966;-79
2022/12/05 00:40:01;;;;;;;22.80;20.60;;;;;;;7.20;100.00;100776.84;329190;29;1600;-79
2022/12/05 00:40:11;;;;;;;22.98;20.77;;;;;;;7.18;100.00;100775.13;328337;30;1353;-79
2022/12/05 00:40:22;;;;;;;22.80;20.60;;;;;;;7.15;100.00;100768.19;334394;29;1728;-79
2022/12/05 00:40:35;;;;;;;22.73;20.53;;;;;;;7.14;100.00;100776.88;331914;29;2997;-79
2022/12/05 00:40:45;;;;;;;22.63;20.42;;;;;;;7.14;100.00;100776.03;331357;29;3082;-79
2022/12/05 00:40:55;;;;;;;22.67;20.47;;;;;;;7.14;100.00;100765.59;331150;29;1014;-79
2022/12/05 00:41:07;;;;;;;22.63;20.42;;;;;;;7.15;100.00;100772.53;328178;30;2817;-79
2022/12/05 00:41:20;;;;;;;22.50;20.35;;;;;;;7.15;100.00;100775.16;328800;30;1033;-79
2022/12/05 00:41:30;;;;;;;22.25;20.15;;;;;;;7.16;100.00;100774.28;328130;29;1976;-79
2022/12/05 00:41:41;;;;;;;22.33;20.23;;;;;;;7.16;100.00;100776.88;325948;30;837;-79
2022/12/05 00:41:51;;;;;;;22.60;20.40;;;;;;;7.15;100.00;100775.16;325732;30;1900;-79
2022/12/05 00:42:02;;;;;;;22.77;20.57;;;;;;;7.13;100.00;100774.28;323013;30;2439;-79
2022/12/05 00:42:12;;;;;;;22.90;20.70;;;;;;;7.12;100.00;100764.75;318723;30;1308;-79
2022/12/05 00:42:22;;;;;;;23.00;20.80;;;;;;;7.10;100.00;100776.91;321344;30;2254;-79
2022/12/05 00:42:33;;;;;;;22.80;20.60;;;;;;;7.08;100.00;100773.47;321421;30;2646;-79
2022/12/05 00:42:43;;;;;;;22.80;20.60;;;;;;;7.06;100.00;100770.00;323411;30;1299;-79
2022/12/05 00:42:54;;;;;;;22.70;20.50;;;;;;;7.04;100.00;100771.75;323014;30;2633;-79
2022/12/05 00:43:04;;;;;;;22.70;20.50;;;;;;;7.03;100.00;100775.25;323358;30;1827;-79
2022/12/05 00:43:14;;;;;;;22.53;20.37;;;;;;;7.02;100.00;100779.56;321152;30;1237;-79
2022/12/05 00:43:25;;;;;;;22.30;20.20;;;;;;;7.01;100.00;100777.84;320921;30;1344;-79
2022/12/05 00:43:35;;;;;;;22.40;20.30;;;;;;;7.00;100.00;100770.91;318987;30;2034;-79
2022/12/05 00:43:46;;;;;;;22.40;20.30;;;;;;;6.98;100.00;100772.66;314031;30;2617;-79
2022/12/05 00:43:58;;;;;;;22.80;20.60;;;;;;;6.97;100.00;100771.81;317594;31;1324;-79
2022/12/05 00:44:09;;;;;;;22.85;20.65;;;;;;;6.97;100.00;100771.81;318323;30;2620;-79
2022/12/05 00:44:20;;;;;;;23.13;20.92;;;;;;;6.94;100.00;100771.81;318193;30;3429;-79
2022/12/05 00:44:30;;;;;;;23.25;21.05;;;;;;;6.94;100.00;100771.81;314331;31;3060;-79
2022/12/05 00:44:41;;;;;;;23.07;20.87;;;;;;;6.93;100.00;100772.69;313066;31;1413;-79
2022/12/05 00:44:51;;;;;;;22.88;20.67;;;;;;;6.94;100.00;100771.81;312805;31;3233;-79
2022/12/05 00:45:02;;;;;;;22.80;20.60;;;;;;;6.93;100.00;100772.69;313945;31;3294;-79
2022/12/05 00:45:12;;;;;;;22.88;20.67;;;;;;;6.93;100.00;100770.09;311941;31;1349;-79
2022/12/05 00:45:22;;;;;;;23.00;20.80;;;;;;;6.94;100.00;100770.97;312581;31;2789;-79
2022/12/05 00:45:33;;;;;;;23.00;20.80;;;;;;;6.93;100.00;100777.91;311041;31;1893;-79
2022/12/05 00:45:43;;;;;;;23.10;20.90;;;;;;;6.93;100.00;100775.31;310891;31;1383;-78
2022/12/05 00:45:54;;;;;;;23.00;20.80;;;;;;;6.96;100.00;100775.28;307169;31;2859;-78
2022/12/05 00:46:06;;;;;;;23.10;20.90;;;;;;;6.97;100.00;100779.59;305696;31;3253;-78
2022/12/05 00:46:21;;;;;;;22.98;20.77;;;;;;;6.97;100.00;100771.81;305001;31;3732;-78
2022/12/05 00:46:31;;;;;;;22.70;20.60;;;;;;;6.98;100.00;100770.94;306012;32;5315;-78
2022/12/05 00:46:42;;;;;;;22.70;20.60;;;;;;;6.98;100.00;100777.88;302379;32;1200;-78
2022/12/05 00:46:52;;;;;;;22.80;20.70;;;;;;;6.98;100.00;100773.53;299348;32;4254;-78
2022/12/05 00:47:03;;;;;;;22.80;20.67;;;;;;;6.99;100.00;100772.66;298728;32;4248;-78
2022/12/05 00:47:13;;;;;;;22.60;20.50;;;;;;;7.01;100.00;100777.84;300692;32;1422;-78
2022/12/05 00:47:23;;;;;;;22.33;20.23;;;;;;;7.01;100.00;100773.50;299651;32;4415;-78
2022/12/05 00:47:35;;;;;;;22.40;20.30;;;;;;;7.03;100.00;100764.81;298906;32;3831;-78
2022/12/05 00:47:45;;;;;;;22.58;20.48;;;;;;;7.05;100.00;100776.09;301263;32;3045;-78
2022/12/05 00:47:56;;;;;;;22.95;20.75;;;;;;;7.05;100.00;100770.88;296226;33;1231;-78
2022/12/05 00:48:06;;;;;;;23.40;21.20;;;;;;;7.06;100.00;100776.06;292080;33;4187;-78
2022/12/05 00:48:16;;;;;;;23.60;21.40;;;;;;;7.07;100.00;100771.75;290617;33;5360;-78
2022/12/05 00:48:27;;;;;;;23.75;21.52;;;;;;;7.08;100.00;100773.47;295098;33;1361;-78
2022/12/05 00:48:37;;;;;;;23.50;21.30;;;;;;;7.09;100.00;100775.19;293858;33;5701;-78
2022/12/05 00:48:48;;;;;;;23.23;21.02;;;;;;;7.10;100.00;100774.31;291100;33;8081;-78
2022/12/05 00:48:59;;;;;;;23.23;21.03;;;;;;;7.09;100.00;100770.00;291348;34;1332;-77
2022/12/05 00:49:09;;;;;;;22.98;20.77;;;;;;;7.12;100.00;100776.03;288818;33;6168;-77
2022/12/05 00:49:20;;;;;;;22.70;20.57;;;;;;;7.12;100.00;100782.97;288203;34;6214;-77
2022/12/05 00:49:30;;;;;;;22.58;20.48;;;;;;;7.13;100.00;100776.91;286569;33;6409;-78
2022/12/05 00:49:41;;;;;;;22.40;20.30;;;;;;;7.14;100.00;100774.28;286239;34;2594;-78
2022/12/05 00:49:51;;;;;;;22.60;20.50;;;;;;;7.15;100.00;100780.34;284446;34;5418;-78
2022/12/05 00:50:03;;;;;;;23.23;21.07;;;;;;;7.15;100.00;100780.34;281608;34;5114;-78
2022/12/05 00:50:14;;;;;;;23.90;21.70;;;;;;;7.16;100.00;100782.09;280372;35;2112;-78
2022/12/05 00:52:07;;;;;;;21.91;19.91;;;;;;;7.13;100.00;100782.09;2504183;27;20280;-78
2022/12/05 00:52:17;;;;;;;21.80;19.80;;;;;;;7.10;100.00;100774.31;353254;28;1222;-78
2022/12/05 00:52:28;;;;;;;21.93;19.93;;;;;;;7.10;100.00;100782.13;350834;28;1337;-78
2022/12/05 00:52:38;;;;;;;22.03;20.03;;;;;;;7.09;100.00;100777.78;349078;28;1304;-78
2022/12/05 00:52:49;;;;;;;22.30;20.20;;;;;;;7.08;100.00;100784.75;349007;28;1301;-78
2022/12/05 00:52:59;;;;;;;22.43;20.33;;;;;;;7.09;100.00;100777.78;347674;28;1249;-78
2022/12/05 00:53:09;;;;;;;22.55;20.45;;;;;;;7.09;100.00;100775.19;346330;28;1231;-78
2022/12/05 00:53:20;;;;;;;22.60;20.50;;;;;;;7.08;100.00;100776.06;347710;28;1196;-78
2022/12/05 00:53:30;;;;;;;22.48;20.38;;;;;;;7.09;100.00;100778.66;347761;28;1086;-79
2022/12/05 00:53:41;;;;;;;22.47;20.37;;;;;;;7.08;100.00;100774.31;349067;28;1355;-78
2022/12/05 00:53:51;;;;;;;22.55;20.45;;;;;;;7.10;100.00;100771.72;347608;28;1284;-78
2022/12/05 00:54:04;;;;;;;22.80;20.70;;;;;;;7.12;100.00;100769.97;347845;28;1017;-78
2022/12/05 00:54:15;;;;;;;22.45;20.35;;;;;;;7.10;100.00;100775.19;346792;28;976;-78
2022/12/05 00:54:25;;;;;;;22.15;20.13;;;;;;;7.10;100.00;100771.72;350656;28;1242;-78
2022/12/05 00:54:35;;;;;;;22.23;20.13;;;;;;;7.11;100.00;100774.31;350355;28;1278;-78
2022/12/05 00:54:46;;;;;;;22.30;20.20;;;;;;;7.13;100.00;100774.28;347827;28;976;-78
2022/12/05 00:54:56;;;;;;;22.10;20.10;;;;;;;7.13;100.00;100777.75;346425;28;840;-78
2022/12/05 00:55:07;;;;;;;22.33;20.23;;;;;;;7.13;100.00;100775.16;347702;28;1334;-78
2022/12/05 00:55:17;;;;;;;22.50;20.40;;;;;;;7.13;100.00;100771.69;347673;28;1375;-78
2022/12/05 00:55:28;;;;;;;22.63;20.53;;;;;;;7.15;100.00;100777.75;348955;28;1209;-78
2022/12/05 00:55:38;;;;;;;22.58;20.48;;;;;;;7.15;100.00;100780.34;350419;28;1215;-78
2022/12/05 00:55:49;;;;;;;22.57;20.47;;;;;;;7.14;100.00;100773.41;347603;28;1299;-78
2022/12/05 00:56:06;;;;;;;22.65;20.55;;;;;;;7.17;100.00;100783.81;346682;28;1168;-78
2022/12/05 00:56:19;;;;;;;22.27;20.25;;;;;;;7.17;100.00;100783.81;350245;28;1432;-78
2022/12/05 00:56:30;;;;;;;22.10;20.10;;;;;;;7.16;100.00;100782.09;350384;28;1356;-78
2022/12/05 00:56:40;;;;;;;22.10;20.10;;;;;;;7.18;100.00;100780.31;343787;28;1322;-78
2022/12/05 00:56:55;;;;;;;21.95;19.95;;;;;;;7.17;100.00;100771.66;346262;28;1205;-78
2022/12/05 00:57:05;;;;;;;21.90;19.90;;;;;;;7.18;100.00;100775.13;347892;28;870;-78
2022/12/05 00:57:15;;;;;;;22.00;20.00;;;;;;;7.18;100.00;100775.13;347464;28;1215;-78